createdAt,value
2023-09-05T00:04:18.575Z,100443.02
2023-09-05T00:08:16.579Z,100442.01
2023-09-05T00:12:14.454Z,100444.62
2023-09-05T00:16:15.524Z,100440.48
2023-09-05T00:20:13.490Z,100443.05
2023-09-05T00:24:47.546Z,100447.63
2023-09-05T00:28:45.465Z,100445.88
2023-09-05T00:32:45.574Z,100446.38
2023-09-05T00:36:43.559Z,100451.38
2023-09-05T00:40:41.468Z,100450.27
2023-09-05T00:44:39.448Z,100446.84
2023-09-05T00:48:40.471Z,100445.01
2023-09-05T00:52:38.454Z,100447.02
2023-09-05T00:56:36.481Z,100440.27
2023-09-05T01:00:34.435Z,100442.59
2023-09-05T01:04:32.442Z,100445.06
2023-09-05T01:08:43.414Z,100447.56
2023-09-05T01:12:41.476Z,100440.41
2023-09-05T01:16:39.368Z,100438.61
2023-09-05T01:20:55.404Z,100442.98
2023-09-05T01:24:54.405Z,100445.08
2023-09-05T01:28:54.403Z,100449.19
2023-09-05T01:32:53.485Z,100455.55
2023-09-05T01:36:51.388Z,100455.16
2023-09-05T01:40:49.369Z,100449.23
2023-09-05T01:44:47.393Z,100447.33
2023-09-05T01:48:45.355Z,100449.89
2023-09-05T01:52:44.429Z,100449.72
2023-09-05T01:56:42.462Z,100450.00
2023-09-05T02:00:40.458Z,100450.17
2023-09-05T02:04:38.368Z,100450.52
2023-09-05T02:08:36.369Z,100453.38
2023-09-05T02:12:34.360Z,100447.45
2023-09-05T02:16:32.554Z,100450.80
2023-09-05T02:20:30.331Z,100453.09
2023-09-05T02:24:29.351Z,100451.70
2023-09-05T02:28:27.335Z,100443.84
2023-09-05T02:32:26.362Z,100441.23
2023-09-05T02:36:29.330Z,100443.16
2023-09-05T02:40:27.317Z,100439.86
2023-09-05T02:44:25.340Z,100439.66
2023-09-05T02:48:23.309Z,100445.71
2023-09-05T02:52:22.921Z,100444.31
2023-09-05T02:56:22.365Z,100440.33
2023-09-05T03:00:21.257Z,100443.11
2023-09-05T03:04:19.335Z,100448.41
2023-09-05T03:08:17.306Z,100449.38
2023-09-05T03:12:15.301Z,100452.48
2023-09-05T03:16:13.332Z,100457.24
2023-09-05T03:20:14.394Z,100458.13
2023-09-05T03:24:12.282Z,100462.85
2023-09-05T03:28:11.305Z,100457.00
2023-09-05T03:32:09.269Z,100453.34
2023-09-05T03:36:07.286Z,100448.86
2023-09-05T03:40:05.252Z,100456.61
2023-09-05T03:44:03.255Z,100457.08
2023-09-05T03:48:02.342Z,100457.18
2023-09-05T03:52:00.261Z,100455.73
2023-09-05T03:55:58.234Z,100457.58
2023-09-05T03:59:56.250Z,100462.58
2023-09-05T04:04:04.281Z,100462.80
2023-09-05T04:08:02.260Z,100463.80
2023-09-05T04:12:00.196Z,100461.01
2023-09-05T04:15:58.267Z,100466.45
2023-09-05T04:19:56.246Z,100466.75
2023-09-05T04:23:54.270Z,100472.02
2023-09-05T04:27:53.173Z,100470.35
2023-09-05T04:31:51.229Z,100474.61
2023-09-05T04:35:52.186Z,100480.14
2023-09-05T04:39:50.243Z,100486.48
2023-09-05T04:43:48.221Z,100491.02
2023-09-05T04:47:46.264Z,100485.12
2023-09-05T04:51:44.163Z,100482.25
2023-09-05T04:55:43.609Z,100487.67
2023-09-05T04:59:43.196Z,100482.05
2023-09-05T05:03:41.236Z,100483.80
2023-09-05T05:07:39.172Z,100486.91
2023-09-05T05:11:37.169Z,100484.75
2023-09-05T05:15:35.132Z,100487.03
2023-09-05T05:19:33.146Z,100491.83
2023-09-05T05:23:31.145Z,100484.73
2023-09-05T05:27:29.233Z,100484.73
2023-09-05T05:31:28.111Z,100481.68
2023-09-05T05:35:26.156Z,100482.20
2023-09-05T05:39:24.132Z,100477.36
2023-09-05T05:43:22.129Z,100477.52
2023-09-05T05:47:20.108Z,100476.52
2023-09-05T05:51:18.145Z,100482.29
2023-09-05T05:55:18.092Z,100487.92
2023-09-05T05:59:16.129Z,100487.74
2023-09-05T06:02:53.596Z,100485.03
2023-09-05T06:06:17.661Z,100485.83
2023-09-05T06:09:41.546Z,100484.97
2023-09-05T06:13:06.811Z,100482.45
2023-09-05T06:16:31.065Z,100486.48
2023-09-05T06:19:55.084Z,100488.48
2023-09-05T06:23:19.039Z,100489.91
2023-09-05T06:26:46.416Z,100497.40
2023-09-05T06:30:13.863Z,100492.21
2023-09-05T06:33:37.926Z,100489.42
2023-09-05T06:37:02.725Z,100490.51
2023-09-05T06:40:27.425Z,100493.14
2023-09-05T06:43:51.411Z,100493.34
2023-09-05T06:47:15.247Z,100488.56
2023-09-05T06:50:39.191Z,100492.39
2023-09-05T06:54:03.110Z,100487.86
2023-09-05T06:57:28.324Z,100482.66
2023-09-05T07:00:55.808Z,100478.65
2023-09-05T07:04:20.294Z,100477.88
2023-09-05T07:07:44.190Z,100482.66
2023-09-05T07:11:08.032Z,100484.13
2023-09-05T07:14:32.430Z,100482.05
2023-09-05T07:17:56.287Z,100484.69
2023-09-05T07:21:20.237Z,100489.79
2023-09-05T07:24:44.091Z,100492.23
2023-09-05T07:28:08.474Z,100493.52
2023-09-05T07:31:32.792Z,100492.81
2023-09-05T07:34:56.995Z,100487.59
2023-09-05T07:38:22.534Z,100489.91
2023-09-05T07:41:47.202Z,100496.20
2023-09-05T07:45:12.560Z,100492.29
2023-09-05T07:48:36.793Z,100492.00
2023-09-05T07:52:01.013Z,100497.43
2023-09-05T07:55:24.917Z,100500.10
2023-09-05T07:58:49.092Z,100500.75
2023-09-05T08:02:13.080Z,100500.77
2023-09-05T08:05:37.078Z,100498.26
2023-09-05T08:09:00.974Z,100491.13
2023-09-05T08:12:24.818Z,100492.75
2023-09-05T08:16:06.050Z,100491.98
2023-09-05T08:19:30.180Z,100492.55
2023-09-05T08:22:54.128Z,100492.02
2023-09-05T08:26:18.504Z,100491.56
2023-09-05T08:29:43.187Z,100491.02
2023-09-05T08:33:07.272Z,100488.89
2023-09-05T08:36:31.280Z,100482.34
2023-09-05T08:39:55.187Z,100480.98
2023-09-05T08:43:19.414Z,100486.95
2023-09-05T08:46:45.241Z,100485.30
2023-09-05T08:50:09.965Z,100485.48
2023-09-05T08:53:38.641Z,100488.51
2023-09-05T08:57:03.795Z,100488.27
2023-09-05T09:00:27.726Z,100490.75
2023-09-05T09:03:52.207Z,100487.27
2023-09-05T09:07:16.890Z,100479.69
2023-09-05T09:10:43.068Z,100477.64
2023-09-05T09:14:06.926Z,100479.09
2023-09-05T09:17:30.915Z,100476.79
2023-09-05T09:20:54.931Z,100474.55
2023-09-05T09:24:20.114Z,100474.81
2023-09-05T09:27:44.024Z,100476.67
2023-09-05T09:31:14.145Z,100466.92
2023-09-05T09:34:39.920Z,100459.92
2023-09-05T09:38:06.486Z,100455.05
2023-09-05T09:41:33.719Z,100450.81
2023-09-05T09:44:58.340Z,100446.13
2023-09-05T09:48:23.928Z,100448.13
2023-09-05T09:51:55.327Z,100444.07
2023-09-05T09:55:21.411Z,100441.63
2023-09-05T09:58:47.228Z,100441.27
2023-09-05T10:02:14.921Z,100438.69
2023-09-05T10:05:42.730Z,100436.44
2023-09-05T10:09:07.965Z,100437.48
2023-09-05T10:12:32.459Z,100439.51
2023-09-05T10:15:58.384Z,100434.33
2023-09-05T10:19:23.973Z,100440.78
2023-09-05T10:22:48.110Z,100440.30
2023-09-05T10:26:15.643Z,100439.45
2023-09-05T10:29:48.482Z,100433.95
2023-09-05T10:33:12.672Z,100431.25
2023-09-05T10:36:47.593Z,100431.39
2023-09-05T10:40:12.868Z,100431.24
2023-09-05T10:43:39.275Z,100427.44
2023-09-05T10:47:25.739Z,100428.67
2023-09-05T10:51:06.891Z,100418.21
2023-09-05T10:54:31.764Z,100409.97
2023-09-05T10:57:55.675Z,100409.36
2023-09-05T11:01:33.326Z,100406.01
2023-09-05T11:04:57.794Z,100409.96
2023-09-05T11:08:23.625Z,100410.94
2023-09-05T11:11:47.661Z,100400.02
2023-09-05T11:15:11.736Z,100406.52
2023-09-05T11:18:45.267Z,100401.54
2023-09-05T11:22:23.794Z,100397.09
2023-09-05T11:25:56.410Z,100392.85
2023-09-05T11:29:21.388Z,100387.52
2023-09-05T11:32:47.409Z,100377.77
2023-09-05T11:36:11.528Z,100368.42
2023-09-05T11:39:35.475Z,100359.89
2023-09-05T11:43:07.369Z,100354.80
2023-09-05T11:46:33.324Z,100354.28
2023-09-05T11:49:59.471Z,100346.33
2023-09-05T11:53:25.157Z,100347.18
2023-09-05T11:56:51.702Z,100336.68
2023-09-05T12:00:17.857Z,100333.80
2023-09-05T12:03:43.650Z,100330.05
2023-09-05T12:07:08.157Z,100325.80
2023-09-05T12:10:41.981Z,100322.83
2023-09-05T12:14:08.261Z,100320.54
2023-09-05T12:17:32.158Z,100313.75
2023-09-05T12:20:58.334Z,100316.77
2023-09-05T12:24:26.341Z,100307.29
2023-09-05T12:27:51.585Z,100306.49
2023-09-05T12:31:19.320Z,100302.02
2023-09-05T12:34:44.793Z,100299.20
2023-09-05T12:38:11.152Z,100299.25
2023-09-05T12:41:35.859Z,100292.27
2023-09-05T12:44:59.850Z,100288.86
2023-09-05T12:48:23.659Z,100287.39
2023-09-05T12:51:47.562Z,100288.61
2023-09-05T12:55:14.629Z,100292.13
2023-09-05T12:58:38.758Z,100292.02
2023-09-05T13:02:02.801Z,100288.36
2023-09-05T13:05:28.374Z,100285.00
2023-09-05T13:08:52.423Z,100283.63
2023-09-05T13:12:17.735Z,100276.50
2023-09-05T13:15:44.861Z,100273.63
2023-09-05T13:19:08.844Z,100266.22
2023-09-05T13:22:32.890Z,100269.19
2023-09-05T13:25:56.802Z,100266.91
2023-09-05T13:29:20.736Z,100263.36
2023-09-05T13:33:04.683Z,100257.89
2023-09-05T13:37:02.594Z,100249.56
2023-09-05T13:41:00.705Z,100249.02
2023-09-05T13:44:58.581Z,100252.44
2023-09-05T13:48:56.693Z,100247.03
2023-09-05T13:52:54.609Z,100243.52
2023-09-05T13:56:52.682Z,100246.08
2023-09-05T14:00:50.701Z,100252.41
2023-09-05T14:04:48.657Z,100252.05
2023-09-05T14:08:46.586Z,100247.76
2023-09-05T14:12:44.690Z,100249.00
2023-09-05T14:16:42.583Z,100244.06
2023-09-05T14:20:40.571Z,100245.52
2023-09-05T14:24:38.659Z,100243.79
2023-09-05T14:28:36.589Z,100239.83
2023-09-05T14:32:34.531Z,100241.77
2023-09-05T14:36:33.585Z,100235.99
2023-09-05T14:40:31.530Z,100231.85
2023-09-05T14:44:29.547Z,100226.81
2023-09-05T14:48:27.732Z,100227.95
2023-09-05T14:52:25.569Z,100225.37
2023-09-05T14:56:23.557Z,100222.84
2023-09-05T15:00:24.623Z,100219.89
2023-09-05T15:04:22.697Z,100214.30
2023-09-05T15:08:20.542Z,100211.15
2023-09-05T15:12:19.561Z,100206.59
2023-09-05T15:16:17.615Z,100207.14
2023-09-05T15:20:15.486Z,100199.00
2023-09-05T15:24:15.515Z,100196.58
2023-09-05T15:28:13.518Z,100192.13
2023-09-05T15:32:11.536Z,100190.40
2023-09-05T15:36:16.548Z,100184.77
2023-09-05T15:40:14.538Z,100177.99
2023-09-05T15:44:12.502Z,100171.50
2023-09-05T15:48:10.646Z,100170.15
2023-09-05T15:52:08.536Z,100176.08
2023-09-05T15:56:06.511Z,100177.72
2023-09-05T16:00:04.500Z,100176.39
2023-09-05T16:04:07.629Z,100178.96
2023-09-05T16:08:05.492Z,100181.06
2023-09-05T16:12:04.477Z,100177.45
2023-09-05T16:16:02.514Z,100172.50
2023-09-05T16:20:00.554Z,100165.50
2023-09-05T16:23:58.454Z,100162.09
2023-09-05T16:28:00.472Z,100162.19
2023-09-05T16:32:00.536Z,100160.91
2023-09-05T16:35:58.492Z,100162.98
2023-09-05T16:39:59.454Z,100162.67
2023-09-05T16:43:57.456Z,100162.65
2023-09-05T16:47:55.484Z,100160.45
2023-09-05T16:51:53.608Z,100162.04
2023-09-05T16:55:54.429Z,100153.21
2023-09-05T16:59:52.457Z,100153.04
2023-09-05T17:03:50.529Z,100152.55
2023-09-05T17:07:49.484Z,100149.95
2023-09-05T17:11:41.520Z,100156.41
2023-09-05T17:15:39.470Z,100150.14
2023-09-05T17:19:39.393Z,100150.14
2023-09-05T17:23:38.554Z,100149.16
2023-09-05T17:27:36.448Z,100158.59
2023-09-05T17:31:34.717Z,100165.66
2023-09-05T17:35:32.410Z,100168.13
2023-09-05T17:39:30.489Z,100170.27
2023-09-05T17:43:28.393Z,100171.98
2023-09-05T17:47:28.378Z,100178.50
2023-09-05T17:51:26.525Z,100177.48
2023-09-05T17:55:24.416Z,100176.36
2023-09-05T17:59:22.430Z,100178.77
2023-09-05T18:03:20.504Z,100185.17
2023-09-05T18:07:18.364Z,100187.23
2023-09-05T18:11:20.394Z,100188.02
2023-09-05T18:15:18.384Z,100193.14
2023-09-05T18:19:17.076Z,100181.93
2023-09-05T18:23:15.370Z,100182.66
2023-09-05T18:27:14.438Z,100184.77
2023-09-05T18:31:22.396Z,100184.20
2023-09-05T18:35:39.370Z,100185.06
2023-09-05T18:39:39.753Z,100189.45
2023-09-05T18:43:38.390Z,100185.79
2023-09-05T18:47:37.355Z,100183.46
2023-09-05T18:51:35.366Z,100191.67
2023-09-05T18:55:33.348Z,100188.06
2023-09-05T18:59:31.401Z,100191.05
2023-09-05T19:03:30.412Z,100190.30
2023-09-05T19:07:28.312Z,100194.53
2023-09-05T19:11:26.344Z,100192.09
2023-09-05T19:15:24.403Z,100194.98
2023-09-05T19:19:23.275Z,100190.30
2023-09-05T19:23:21.305Z,100191.42
2023-09-05T19:27:19.341Z,100198.33
2023-09-05T19:31:17.369Z,100197.42
2023-09-05T19:35:16.365Z,100193.31
2023-09-05T19:39:14.347Z,100197.22
2023-09-05T19:43:12.268Z,100199.64
2023-09-05T19:47:10.410Z,100198.42
2023-09-05T19:51:10.252Z,100197.03
2023-09-05T19:55:08.317Z,100193.80
2023-09-05T19:59:06.280Z,100192.95
2023-09-05T20:03:04.313Z,100195.36
2023-09-05T20:07:03.340Z,100191.11
2023-09-05T20:11:02.311Z,100189.99
2023-09-05T20:15:00.274Z,100191.95
2023-09-05T20:18:58.283Z,100198.89
2023-09-05T20:22:56.296Z,100189.52
2023-09-05T20:26:54.244Z,100189.44
2023-09-05T20:30:52.332Z,100183.17
2023-09-05T20:34:50.249Z,100184.30
2023-09-05T20:38:49.236Z,100183.17
2023-09-05T20:42:47.244Z,100183.66
2023-09-05T20:46:45.248Z,100187.66
2023-09-05T20:50:43.191Z,100192.23
2023-09-05T20:54:41.402Z,100194.23
2023-09-05T20:58:39.217Z,100194.48
2023-09-05T21:02:37.256Z,100191.37
2023-09-05T21:06:35.294Z,100188.65
2023-09-05T21:10:33.182Z,100191.63
2023-09-05T21:14:31.248Z,100192.48
2023-09-05T21:18:29.470Z,100193.69
2023-09-05T21:22:30.168Z,100197.86
2023-09-05T21:26:28.152Z,100190.26
2023-09-05T21:30:26.200Z,100183.48
2023-09-05T21:34:24.136Z,100181.38
2023-09-05T21:38:22.172Z,100179.35
2023-09-05T21:42:20.170Z,100181.54
2023-09-05T21:46:19.204Z,100179.04
2023-09-05T21:50:17.171Z,100180.77
2023-09-05T21:54:15.140Z,100179.85
2023-09-05T21:58:13.138Z,100186.06
2023-09-05T22:06:01.837Z,100186.53
2023-09-05T22:09:59.825Z,100191.16
2023-09-05T22:13:57.803Z,100194.04
2023-09-05T22:17:55.866Z,100193.98
2023-09-05T22:21:53.887Z,100195.92
2023-09-05T22:25:51.779Z,100195.11
2023-09-05T22:29:49.810Z,100198.75
2023-09-05T22:33:47.766Z,100195.95
2023-09-05T22:37:45.816Z,100196.77
2023-09-05T22:41:43.742Z,100196.96
2023-09-05T22:45:41.825Z,100195.70
2023-09-05T22:49:39.745Z,100195.02
2023-09-05T22:53:37.736Z,100203.23
2023-09-05T22:57:36.822Z,100202.96
2023-09-05T23:01:34.776Z,100201.45
2023-09-05T23:05:32.743Z,100196.44
2023-09-05T23:09:30.771Z,100194.52
2023-09-05T23:13:28.826Z,100193.73
2023-09-05T23:17:26.954Z,100192.71
2023-09-05T23:21:24.797Z,100191.23
2023-09-05T23:25:22.784Z,100192.15
2023-09-05T23:29:21.704Z,100188.64
2023-09-05T23:33:19.748Z,100188.36
2023-09-05T23:37:17.668Z,100184.85
2023-09-05T23:41:15.730Z,100183.94
2023-09-05T23:45:14.677Z,100185.64
2023-09-05T23:49:14.844Z,100189.83
2023-09-05T23:53:15.675Z,100192.73
2023-09-05T23:57:13.702Z,100195.76
